createdAt,value
2023-01-23T00:01:35.761Z,99724.44
2023-01-23T00:04:05.038Z,99719.84
2023-01-23T00:06:32.832Z,99725.41
2023-01-23T00:09:00.467Z,99716.22
2023-01-23T00:11:30.576Z,99710.91
2023-01-23T00:14:00.219Z,99724.84
2023-01-23T00:16:31.290Z,99706.97
2023-01-23T00:18:59.565Z,99714.16
2023-01-23T00:21:29.169Z,99701.63
2023-01-23T00:23:59.432Z,99686.75
2023-01-23T00:26:30.228Z,99678.16
2023-01-23T00:28:58.097Z,99661.19
2023-01-23T00:31:33.037Z,99688.41
2023-01-23T00:34:03.747Z,99703.38
2023-01-23T00:36:37.059Z,99711.63
2023-01-23T00:39:08.173Z,99694.59
2023-01-23T00:41:35.898Z,99698.56
2023-01-23T00:44:04.987Z,99665.69
2023-01-23T00:46:32.536Z,99678.81
2023-01-23T00:49:00.065Z,99698.09
2023-01-23T00:51:27.544Z,99738.75
2023-01-23T00:53:55.167Z,99739.94
2023-01-23T00:56:22.697Z,99745.41
2023-01-23T00:58:50.219Z,99733.25
2023-01-23T01:01:18.588Z,99727.00
2023-01-23T01:03:46.788Z,99732.16
2023-01-23T01:06:14.302Z,99731.91
2023-01-23T01:08:41.919Z,99732.22
2023-01-23T01:11:09.470Z,99733.03
2023-01-23T01:13:37.624Z,99747.41
2023-01-23T01:16:05.699Z,99733.31
2023-01-23T01:18:33.398Z,99731.50
2023-01-23T01:21:00.954Z,99728.59
2023-01-23T01:23:28.583Z,99727.31
2023-01-23T01:25:59.823Z,99728.34
2023-01-23T01:28:30.567Z,99724.41
2023-01-23T01:30:59.223Z,99725.19
2023-01-23T01:33:28.672Z,99712.97
2023-01-23T01:35:56.930Z,99711.38
2023-01-23T01:38:25.080Z,99720.94
2023-01-23T01:40:52.995Z,99718.78
2023-01-23T01:43:23.587Z,99716.84
2023-01-23T01:46:27.760Z,99729.31
2023-01-23T01:49:19.773Z,99724.00
2023-01-23T01:52:04.006Z,99729.59
2023-01-23T01:54:49.117Z,99728.06
2023-01-23T01:57:22.233Z,99720.09
2023-01-23T02:00:04.146Z,99723.63
2023-01-23T02:02:47.875Z,99712.69
2023-01-23T02:05:25.570Z,99717.13
2023-01-23T02:08:17.324Z,99722.50
2023-01-23T02:10:46.987Z,99729.59
2023-01-23T02:13:30.663Z,99745.09
2023-01-23T02:16:01.249Z,99736.28
2023-01-23T02:18:31.046Z,99732.56
2023-01-23T02:21:01.839Z,99735.53
2023-01-23T02:23:47.423Z,99724.50
2023-01-23T02:26:34.312Z,99716.22
2023-01-23T02:29:01.839Z,99710.28
2023-01-23T02:31:33.636Z,99703.31
2023-01-23T02:34:01.803Z,99710.50
2023-01-23T02:36:32.939Z,99715.13
2023-01-23T02:39:13.604Z,99713.31
2023-01-23T02:41:46.742Z,99718.88
2023-01-23T02:44:21.450Z,99716.22
2023-01-23T02:46:56.970Z,99722.75
2023-01-23T02:49:27.794Z,99728.84
2023-01-23T02:51:56.753Z,99721.97
2023-01-23T02:54:25.852Z,99727.31
2023-01-23T02:56:53.850Z,99725.91
2023-01-23T02:59:42.419Z,99745.03
2023-01-23T03:02:11.178Z,99737.06
2023-01-23T03:04:38.753Z,99722.91
2023-01-23T03:07:06.226Z,99707.38
2023-01-23T03:09:33.842Z,99740.22
2023-01-23T03:12:01.498Z,99727.72
2023-01-23T03:14:30.349Z,99738.06
2023-01-23T03:16:59.456Z,99747.06
2023-01-23T03:19:31.637Z,99747.88
2023-01-23T03:21:59.507Z,99750.53
2023-01-23T03:24:27.025Z,99751.09
2023-01-23T03:26:54.565Z,99756.94
2023-01-23T03:29:45.365Z,99758.56
2023-01-23T03:32:16.790Z,99768.63
2023-01-23T03:34:45.345Z,99763.06
2023-01-23T03:37:15.391Z,99772.66
2023-01-23T03:40:04.676Z,99758.72
2023-01-23T03:42:36.371Z,99772.41
2023-01-23T03:45:06.525Z,99765.34
2023-01-23T03:47:36.247Z,99770.47
2023-01-23T03:50:04.730Z,99768.38
2023-01-23T03:52:38.172Z,99777.09
2023-01-23T03:55:07.045Z,99779.00
2023-01-23T03:57:34.754Z,99782.16
2023-01-23T04:00:14.009Z,99775.53
2023-01-23T04:02:43.971Z,99776.00
2023-01-23T04:05:14.198Z,99782.94
2023-01-23T04:07:41.779Z,99783.03
2023-01-23T04:10:12.096Z,99783.03
2023-01-23T04:12:43.572Z,99772.16
2023-01-23T04:15:12.045Z,99784.34
2023-01-23T04:17:42.216Z,99776.34
2023-01-23T04:20:10.977Z,99779.53
2023-01-23T04:22:39.072Z,99791.00
2023-01-23T04:25:07.527Z,99781.41
2023-01-23T04:27:35.160Z,99788.38
2023-01-23T04:30:03.981Z,99785.34
2023-01-23T04:32:32.093Z,99793.06
2023-01-23T04:34:59.589Z,99800.78
2023-01-23T04:37:27.873Z,99805.06
2023-01-23T04:39:56.275Z,99794.69
2023-01-23T04:42:23.860Z,99790.81
2023-01-23T04:45:12.020Z,99790.75
2023-01-23T04:47:58.075Z,99795.88
2023-01-23T04:50:25.835Z,99802.41
2023-01-23T04:52:53.359Z,99800.53
2023-01-23T04:55:20.899Z,99800.63
2023-01-23T04:57:48.737Z,99787.59
2023-01-23T05:00:23.618Z,99796.34
2023-01-23T05:02:52.029Z,99793.22
2023-01-23T05:05:21.435Z,99804.66
2023-01-23T05:07:52.522Z,99809.47
2023-01-23T05:10:20.511Z,99807.06
2023-01-23T05:12:49.581Z,99794.03
2023-01-23T05:15:17.848Z,99808.97
2023-01-23T05:17:47.827Z,99814.28
2023-01-23T05:20:16.446Z,99808.91
2023-01-23T05:22:52.833Z,99807.38
2023-01-23T05:25:29.191Z,99826.47
2023-01-23T05:27:58.505Z,99822.00
2023-01-23T05:30:26.583Z,99818.00
2023-01-23T05:33:05.512Z,99820.41
2023-01-23T05:35:33.123Z,99824.41
2023-01-23T05:38:01.203Z,99816.44
2023-01-23T05:40:28.756Z,99813.56
2023-01-23T05:43:16.603Z,99819.41
2023-01-23T05:46:07.022Z,99822.66
2023-01-23T05:48:44.557Z,99834.38
2023-01-23T05:51:12.531Z,99823.75
2023-01-23T05:53:40.110Z,99815.47
2023-01-23T05:56:09.464Z,99825.94
2023-01-23T05:58:59.683Z,99826.22
2023-01-23T06:01:45.287Z,99825.69
2023-01-23T06:04:48.076Z,99816.47
2023-01-23T06:07:25.199Z,99816.47
2023-01-23T06:09:56.391Z,99821.53
2023-01-23T06:12:24.065Z,99819.22
2023-01-23T06:14:52.229Z,99818.72
2023-01-23T06:17:20.458Z,99822.97
2023-01-23T06:19:49.109Z,99822.72
2023-01-23T06:22:17.420Z,99819.81
2023-01-23T06:25:04.462Z,99815.56
2023-01-23T06:27:32.312Z,99826.50
2023-01-23T06:30:04.133Z,99838.25
2023-01-23T06:32:35.226Z,99832.44
2023-01-23T06:35:04.906Z,99838.56
2023-01-23T06:37:36.511Z,99835.97
2023-01-23T06:40:05.433Z,99840.16
2023-01-23T06:42:33.505Z,99852.41
2023-01-23T06:45:01.641Z,99831.22
2023-01-23T06:47:31.491Z,99833.38
2023-01-23T06:50:02.806Z,99834.75
2023-01-23T06:52:33.951Z,99843.84
2023-01-23T06:55:01.431Z,99833.41
2023-01-23T06:57:30.332Z,99848.91
2023-01-23T06:59:58.106Z,99846.72
2023-01-23T07:02:25.821Z,99847.81
2023-01-23T07:04:53.524Z,99850.47
2023-01-23T07:07:21.093Z,99848.69
2023-01-23T07:09:50.403Z,99844.72
2023-01-23T07:12:24.723Z,99845.06
2023-01-23T07:14:52.470Z,99842.69
2023-01-23T07:17:31.244Z,99844.88
2023-01-23T07:19:59.013Z,99855.00
2023-01-23T07:22:26.617Z,99849.69
2023-01-23T07:24:54.163Z,99855.34
2023-01-23T07:27:21.750Z,99853.50
2023-01-23T07:29:49.216Z,99851.16
2023-01-23T07:32:16.818Z,99856.78
2023-01-23T07:34:44.318Z,99856.81
2023-01-23T07:37:11.807Z,99853.88
2023-01-23T07:39:39.376Z,99854.28
2023-01-23T07:42:06.882Z,99846.31
2023-01-23T07:44:34.347Z,99849.25
2023-01-23T07:47:01.771Z,99860.72
2023-01-23T07:49:29.364Z,99853.56
2023-01-23T07:51:56.818Z,99848.78
2023-01-23T07:54:24.370Z,99836.09
2023-01-23T07:56:51.914Z,99831.06
2023-01-23T07:59:19.487Z,99825.50
2023-01-23T08:01:47.035Z,99824.72
2023-01-23T08:04:14.831Z,99840.75
2023-01-23T08:06:42.297Z,99834.38
2023-01-23T08:09:09.871Z,99835.16
2023-01-23T08:11:37.373Z,99831.13
2023-01-23T08:14:04.910Z,99849.84
2023-01-23T08:16:32.399Z,99841.84
2023-01-23T08:19:00.120Z,99826.06
2023-01-23T08:21:27.650Z,99847.44
2023-01-23T08:23:55.055Z,99842.94
2023-01-23T08:26:22.527Z,99844.50
2023-01-23T08:28:49.998Z,99834.38
2023-01-23T08:31:17.595Z,99834.91
2023-01-23T08:33:45.165Z,99841.59
2023-01-23T08:36:13.997Z,99844.53
2023-01-23T08:38:41.885Z,99833.34
2023-01-23T08:41:12.132Z,99840.53
2023-01-23T08:43:41.935Z,99841.88
2023-01-23T08:46:10.647Z,99842.94
2023-01-23T08:48:38.557Z,99847.44
2023-01-23T08:51:08.905Z,99857.31
2023-01-23T08:53:37.421Z,99857.81
2023-01-23T08:56:17.354Z,99855.44
2023-01-23T08:58:46.305Z,99862.63
2023-01-23T09:01:20.839Z,99855.22
2023-01-23T09:03:48.969Z,99850.94
2023-01-23T09:06:18.844Z,99845.69
2023-01-23T09:08:47.104Z,99841.13
2023-01-23T09:11:14.786Z,99836.84
2023-01-23T09:13:42.711Z,99845.16
2023-01-23T09:16:10.474Z,99844.06
2023-01-23T09:18:38.136Z,99841.41
2023-01-23T09:21:11.708Z,99851.06
2023-01-23T09:23:39.275Z,99841.19
2023-01-23T09:26:12.452Z,99838.31
2023-01-23T09:28:42.988Z,99844.19
2023-01-23T09:31:12.890Z,99845.25
2023-01-23T09:33:41.399Z,99839.38
2023-01-23T09:36:09.509Z,99840.94
2023-01-23T09:38:37.448Z,99834.03
2023-01-23T09:41:11.832Z,99833.53
2023-01-23T09:44:07.672Z,99839.44
2023-01-23T09:46:47.242Z,99843.97
2023-01-23T09:49:21.810Z,99836.22
2023-01-23T09:51:59.655Z,99827.34
2023-01-23T09:54:37.602Z,99839.69
2023-01-23T09:57:13.979Z,99840.97
2023-01-23T09:59:58.767Z,99834.59
2023-01-23T10:02:28.324Z,99832.47
2023-01-23T10:04:58.372Z,99824.75
2023-01-23T10:07:35.138Z,99826.09
2023-01-23T10:10:44.596Z,99833.81
2023-01-23T10:13:18.898Z,99821.81
2023-01-23T10:16:07.887Z,99823.44
2023-01-23T10:19:09.200Z,99822.13
2023-01-23T10:21:41.714Z,99819.94
2023-01-23T10:24:40.042Z,99824.53
2023-01-23T10:27:26.930Z,99823.69
2023-01-23T10:30:02.681Z,99824.22
2023-01-23T10:32:41.616Z,99819.66
2023-01-23T10:35:19.369Z,99816.97
2023-01-23T10:37:51.530Z,99817.94
2023-01-23T10:40:47.356Z,99827.88
2023-01-23T10:43:20.742Z,99820.66
2023-01-23T10:45:49.941Z,99822.22
2023-01-23T10:48:32.729Z,99821.66
2023-01-23T10:51:00.963Z,99821.59
2023-01-23T10:53:28.582Z,99824.19
2023-01-23T10:55:59.822Z,99824.00
2023-01-23T10:58:37.089Z,99831.06
2023-01-23T11:01:06.361Z,99835.22
2023-01-23T11:03:36.200Z,99832.28
2023-01-23T11:06:09.290Z,99829.13
2023-01-23T11:08:39.897Z,99821.94
2023-01-23T11:11:16.815Z,99819.25
2023-01-23T11:13:47.274Z,99813.88
2023-01-23T11:16:19.763Z,99819.47
2023-01-23T11:18:55.687Z,99816.81
2023-01-23T11:21:24.575Z,99813.59
2023-01-23T11:24:09.892Z,99809.97
2023-01-23T11:26:39.033Z,99818.41
2023-01-23T11:29:25.771Z,99811.84
2023-01-23T11:31:59.512Z,99812.31
2023-01-23T11:34:35.151Z,99810.75
2023-01-23T11:37:28.952Z,99820.63
2023-01-23T11:40:18.607Z,99824.66
2023-01-23T11:42:47.182Z,99823.47
2023-01-23T11:45:35.605Z,99820.78
2023-01-23T11:48:12.363Z,99820.22
2023-01-23T11:51:07.638Z,99807.00
2023-01-23T11:53:58.279Z,99809.25
2023-01-23T11:57:11.077Z,99810.38
2023-01-23T12:00:00.017Z,99806.38
2023-01-23T12:02:38.495Z,99811.09
2023-01-23T12:05:34.105Z,99815.63
2023-01-23T12:08:28.189Z,99809.44
2023-01-23T12:11:14.130Z,99808.34
2023-01-23T12:14:05.950Z,99814.69
2023-01-23T12:16:58.344Z,99804.28
2023-01-23T12:20:09.354Z,99812.50
2023-01-23T12:22:55.296Z,99802.16
2023-01-23T12:25:35.146Z,99807.13
2023-01-23T12:28:18.063Z,99793.50
2023-01-23T12:31:22.527Z,99790.06
2023-01-23T12:33:50.111Z,99785.97
2023-01-23T12:36:59.460Z,99780.41
2023-01-23T12:39:37.583Z,99778.22
2023-01-23T12:42:13.663Z,99778.25
2023-01-23T12:44:49.485Z,99767.81
2023-01-23T12:47:44.955Z,99772.94
2023-01-23T12:50:24.811Z,99770.00
2023-01-23T12:53:04.116Z,99771.81
2023-01-23T12:55:36.123Z,99770.38
2023-01-23T12:58:09.583Z,99763.16
2023-01-23T13:01:09.457Z,99765.91
2023-01-23T13:03:46.103Z,99769.28
2023-01-23T13:06:38.032Z,99770.88
2023-01-23T13:09:33.733Z,99762.66
2023-01-23T13:12:22.292Z,99757.03
2023-01-23T13:17:49.159Z,99759.91
2023-01-23T13:20:43.463Z,99755.19
2023-01-23T13:23:20.251Z,99756.22
2023-01-23T13:25:48.372Z,99757.97
2023-01-23T13:28:44.632Z,99762.13
2023-01-23T13:31:46.946Z,99757.91
2023-01-23T13:34:18.060Z,99755.63
2023-01-23T13:36:53.486Z,99746.84
2023-01-23T13:39:26.034Z,99750.00
2023-01-23T13:42:16.330Z,99753.81
2023-01-23T13:45:19.164Z,99751.97
2023-01-23T14:20:19.619Z,99737.38
2023-01-23T14:22:47.688Z,99737.09
2023-01-23T14:25:18.831Z,99738.38
2023-01-23T14:30:30.621Z,99739.69
2023-01-23T14:33:01.354Z,99743.63
2023-01-23T14:35:33.109Z,99734.63
2023-01-23T14:38:05.742Z,99745.00
2023-01-23T14:40:49.053Z,99735.66
2023-01-23T14:43:27.096Z,99724.78
2023-01-23T14:46:08.202Z,99727.50
2023-01-23T14:48:40.783Z,99727.22
2023-01-23T14:51:20.117Z,99725.78
2023-01-23T14:53:57.278Z,99733.59
2023-01-23T14:56:37.234Z,99700.47
2023-01-23T14:59:08.455Z,99703.75
2023-01-23T15:01:36.258Z,99701.38
2023-01-23T15:04:07.815Z,99680.88
2023-01-23T15:06:36.806Z,99653.53
2023-01-23T15:09:18.040Z,99667.25
2023-01-23T15:11:46.180Z,99670.88
2023-01-23T15:14:36.931Z,99690.66
2023-01-23T15:17:08.236Z,99676.00
2023-01-23T15:19:38.100Z,99674.66
2023-01-23T15:22:22.291Z,99676.00
2023-01-23T15:24:50.019Z,99662.81
2023-01-23T15:27:43.711Z,99652.00
2023-01-23T15:30:36.237Z,99657.59
2023-01-23T15:33:09.430Z,99652.94
2023-01-23T15:35:38.868Z,99651.63
2023-01-23T15:38:08.656Z,99644.41
2023-01-23T15:40:38.751Z,99649.47
2023-01-23T15:43:19.082Z,99652.38
2023-01-23T15:45:47.258Z,99646.69
2023-01-23T15:48:14.789Z,99639.53
2023-01-23T15:50:42.629Z,99633.31
2023-01-23T15:53:14.787Z,99622.47
2023-01-23T15:55:42.271Z,99627.50
2023-01-23T15:58:17.147Z,99612.06
2023-01-23T16:00:44.684Z,99611.75
2023-01-23T16:03:15.024Z,99624.34
2023-01-23T16:06:02.339Z,99622.06
2023-01-23T16:08:30.037Z,99621.44
2023-01-23T16:10:57.646Z,99628.91
2023-01-23T16:13:25.305Z,99638.47
2023-01-23T16:15:53.367Z,99627.06
2023-01-23T16:18:21.213Z,99631.81
2023-01-23T16:20:49.124Z,99610.47
2023-01-23T16:23:29.280Z,99629.22
2023-01-23T16:26:06.585Z,99622.22
2023-01-23T16:31:21.916Z,99643.00
2023-01-23T16:33:49.855Z,99622.47
2023-01-23T16:36:19.149Z,99620.66
2023-01-23T16:38:56.338Z,99627.06
2023-01-23T16:41:23.930Z,99636.81
2023-01-23T16:43:51.443Z,99636.56
2023-01-23T16:46:20.350Z,99633.41
2023-01-23T16:48:50.806Z,99630.75
2023-01-23T16:51:23.607Z,99624.69
2023-01-23T16:53:56.282Z,99606.09
2023-01-23T16:56:30.451Z,99612.97
2023-01-23T16:58:58.442Z,99604.41
2023-01-23T17:01:27.408Z,99610.22
2023-01-23T17:03:59.567Z,99606.75
2023-01-23T17:06:27.414Z,99601.88
2023-01-23T17:08:56.417Z,99601.66
2023-01-23T17:11:29.746Z,99594.28
2023-01-23T17:14:02.980Z,99602.84
2023-01-23T17:16:30.682Z,99599.84
2023-01-23T17:19:01.394Z,99609.22
2023-01-23T17:21:34.254Z,99608.09
2023-01-23T17:24:02.047Z,99600.34
2023-01-23T17:26:29.631Z,99592.13
2023-01-23T17:28:57.452Z,99591.06
2023-01-23T17:31:28.743Z,99583.75
2023-01-23T17:33:56.527Z,99560.03
2023-01-23T17:36:27.702Z,99574.59
2023-01-23T17:38:58.002Z,99576.22
2023-01-23T17:41:25.768Z,99567.13
2023-01-23T17:43:53.421Z,99568.25
2023-01-23T17:46:26.544Z,99572.94
2023-01-23T17:48:55.175Z,99572.69
2023-01-23T17:51:26.680Z,99563.66
2023-01-23T17:53:55.564Z,99561.00
2023-01-23T17:56:23.428Z,99549.41
2023-01-23T17:58:51.021Z,99555.78
2023-01-23T18:01:22.664Z,99554.22
2023-01-23T18:03:51.610Z,99548.41
2023-01-23T18:06:21.443Z,99544.78
2023-01-23T18:08:49.239Z,99551.38
2023-01-23T18:11:20.247Z,99561.44
2023-01-23T18:13:50.756Z,99552.06
2023-01-23T18:16:26.858Z,99534.78
2023-01-23T18:19:04.834Z,99540.94
2023-01-23T18:21:32.784Z,99536.09
2023-01-23T18:24:00.747Z,99538.38
2023-01-23T18:26:56.119Z,99538.56
2023-01-23T18:29:30.283Z,99550.03
2023-01-23T18:32:15.376Z,99541.56
2023-01-23T18:34:52.249Z,99534.47
2023-01-23T18:37:33.872Z,99530.28
2023-01-23T18:40:05.084Z,99534.28
2023-01-23T18:42:38.951Z,99535.09
2023-01-23T18:45:11.049Z,99531.78
2023-01-23T18:47:39.924Z,99518.19
2023-01-23T18:50:11.323Z,99520.06
2023-01-23T18:53:12.224Z,99521.19
2023-01-23T18:55:52.366Z,99526.56
2023-01-23T18:59:06.208Z,99526.84
2023-01-23T19:02:26.309Z,99517.56
2023-01-23T19:05:16.233Z,99504.69
2023-01-23T19:07:45.309Z,99509.41
2023-01-23T19:10:18.372Z,99504.34
2023-01-23T19:13:14.064Z,99492.78
2023-01-23T19:16:08.758Z,99488.50
2023-01-23T19:18:48.890Z,99482.34
2023-01-23T19:21:26.999Z,99477.28
2023-01-23T19:24:01.843Z,99486.06
2023-01-23T19:26:37.789Z,99479.44
2023-01-23T19:29:21.615Z,99450.31
2023-01-23T19:32:06.607Z,99475.91
2023-01-23T19:34:35.007Z,99476.00
2023-01-23T19:37:03.359Z,99474.09
2023-01-23T19:39:31.212Z,99475.16
2023-01-23T19:41:59.578Z,99472.22
2023-01-23T19:44:29.177Z,99473.34
2023-01-23T19:46:56.791Z,99470.16
2023-01-23T19:49:25.539Z,99478.69
2023-01-23T19:51:53.277Z,99476.84
2023-01-23T19:54:23.002Z,99482.91
2023-01-23T19:56:52.307Z,99475.47
2023-01-23T19:59:19.882Z,99470.38
2023-01-23T20:01:52.754Z,99475.47
2023-01-23T20:04:36.865Z,99461.09
2023-01-23T20:07:04.890Z,99468.34
2023-01-23T20:09:32.367Z,99465.38
2023-01-23T20:12:03.271Z,99458.44
2023-01-23T20:14:31.008Z,99458.19
2023-01-23T20:17:24.393Z,99459.53
2023-01-23T20:19:56.245Z,99431.03
2023-01-23T20:22:24.968Z,99440.31
2023-01-23T20:24:52.330Z,99452.09
2023-01-23T20:27:20.527Z,99438.81
2023-01-23T20:29:52.242Z,99430.06
2023-01-23T20:32:19.911Z,99421.78
2023-01-23T20:34:47.760Z,99423.09
2023-01-23T20:37:15.442Z,99415.06
2023-01-23T20:39:43.032Z,99422.81
2023-01-23T20:42:11.376Z,99425.22
2023-01-23T20:44:39.028Z,99418.47
2023-01-23T20:47:06.883Z,99410.19
2023-01-23T20:49:34.374Z,99414.25
2023-01-23T20:52:20.082Z,99411.31
2023-01-23T20:54:47.994Z,99395.16
2023-01-23T20:57:16.331Z,99393.03
2023-01-23T20:59:43.758Z,99406.31
2023-01-23T21:02:24.543Z,99395.84
2023-01-23T21:04:53.601Z,99399.59
2023-01-23T21:07:22.405Z,99393.22
2023-01-23T21:09:50.003Z,99390.06
2023-01-23T21:12:17.602Z,99394.59
2023-01-23T21:14:45.363Z,99383.34
2023-01-23T21:17:12.829Z,99386.38
2023-01-23T21:19:40.396Z,99393.03
2023-01-23T21:22:08.295Z,99382.69
2023-01-23T21:24:36.710Z,99383.53
2023-01-23T21:27:06.058Z,99389.13
2023-01-23T21:29:34.222Z,99382.22
2023-01-23T21:32:01.867Z,99376.06
2023-01-23T21:34:30.637Z,99381.69
2023-01-23T21:36:58.156Z,99387.22
2023-01-23T21:39:25.650Z,99379.25
2023-01-23T21:41:53.190Z,99383.25
2023-01-23T21:44:20.872Z,99381.44
2023-01-23T21:46:49.427Z,99393.34
2023-01-23T21:49:16.887Z,99382.72
2023-01-23T21:51:45.263Z,99377.94
2023-01-23T21:54:12.739Z,99393.38
2023-01-23T21:56:40.245Z,99397.88
2023-01-23T21:59:07.659Z,99387.47
2023-01-23T22:01:52.899Z,99386.94
2023-01-23T22:04:24.240Z,99401.84
2023-01-23T22:06:56.553Z,99392.53
2023-01-23T22:09:25.699Z,99388.00
2023-01-23T22:11:54.214Z,99384.28
2023-01-23T22:14:21.789Z,99380.81
2023-01-23T22:16:50.538Z,99365.09
2023-01-23T22:19:25.299Z,99381.91
2023-01-23T22:21:57.430Z,99385.91
2023-01-23T22:24:25.336Z,99384.03
2023-01-23T22:26:52.787Z,99378.97
2023-01-23T22:29:20.400Z,99384.56
2023-01-23T22:31:47.963Z,99386.38
2023-01-23T22:34:15.623Z,99384.03
2023-01-23T22:36:43.069Z,99382.16
2023-01-23T22:39:14.102Z,99387.28
2023-01-23T22:41:41.569Z,99362.00
2023-01-23T22:44:09.059Z,99367.81
2023-01-23T22:46:36.593Z,99362.50
2023-01-23T22:49:04.272Z,99353.22
2023-01-23T22:51:32.008Z,99342.34
2023-01-23T22:53:59.638Z,99350.56
2023-01-23T22:56:28.679Z,99359.72
2023-01-23T22:58:57.283Z,99346.91
2023-01-23T23:01:27.462Z,99347.28
2023-01-23T23:03:58.032Z,99350.19
2023-01-23T23:06:26.372Z,99352.91
2023-01-23T23:08:53.856Z,99356.59
2023-01-23T23:11:23.853Z,99346.28
2023-01-23T23:13:51.633Z,99345.44
2023-01-23T23:16:31.432Z,99352.38
2023-01-23T23:19:02.531Z,99365.13
2023-01-23T23:21:34.305Z,99362.72
2023-01-23T23:24:02.950Z,99366.38
2023-01-23T23:26:31.915Z,99361.63
2023-01-23T23:29:01.054Z,99359.72
2023-01-23T23:31:28.918Z,99352.53
2023-01-23T23:33:56.620Z,99350.13
2023-01-23T23:36:24.269Z,99348.00
2023-01-23T23:38:51.786Z,99345.03
2023-01-23T23:41:19.759Z,99347.16
2023-01-23T23:43:47.336Z,99347.31
2023-01-23T23:46:16.570Z,99352.41
2023-01-23T23:48:44.226Z,99341.25
2023-01-23T23:51:14.236Z,99352.91
2023-01-23T23:53:42.091Z,99360.56
2023-01-23T23:56:13.608Z,99357.84
2023-01-23T23:58:41.036Z,99352.28
